Time;durP1;ratioP1;P1;durP2;ratioP2;P2;SDS_P1;SDS_P2;PMS_P1;PMS_P2;Temp;Humidity;BMP_temperature;BMP_pressure;BME280_temperature;BME280_humidity;BME280_pressure;Samples;Min_cycle;Max_cycle;Signal;HPM_P1;HPM_P2
2022/08/20 00:01:05;;;;;;;18.52;12.18;;;20.70;99.90;;;-144.05;74.68;125687.94;4922295;29;20403;-84
2022/08/20 00:03:39;;;;;;;21.23;14.05;;;20.60;99.90;;;-144.05;77.01;125687.94;4921628;29;20031;-88
2022/08/20 00:06:16;;;;;;;22.17;13.57;;;20.50;99.90;;;-144.05;77.77;125687.94;4922368;29;20031;-85
2022/08/20 00:08:44;;;;;;;21.75;14.82;;;20.30;99.90;;;-144.05;79.30;125687.94;4922265;29;20038;-84
2022/08/20 00:11:19;;;;;;;26.83;16.42;;;20.20;99.90;;;-144.05;80.11;125687.94;4937929;29;20108;-84
2022/08/20 00:13:53;;;;;;;21.27;13.43;;;20.20;99.90;;;-144.05;80.76;125687.94;4930042;29;20382;-86
2022/08/20 00:16:24;;;;;;;22.75;14.63;;;20.10;99.90;;;-144.05;81.86;125687.94;4939522;29;20035;-86
2022/08/20 00:18:50;;;;;;;23.23;14.73;;;20.00;99.90;;;-144.05;82.41;125687.94;4938567;29;20458;-89
2022/08/20 00:21:20;;;;;;;27.75;16.40;;;19.90;99.90;;;-144.05;83.03;125687.94;4956284;29;20028;-87
2022/08/20 00:23:49;;;;;;;26.45;17.08;;;19.90;99.90;;;-144.05;83.59;125687.94;4939346;29;20074;-89
2022/08/20 00:26:18;;;;;;;27.20;16.58;;;19.90;99.90;;;-144.05;84.06;125687.94;4956954;29;20051;-91
2022/08/20 00:28:44;;;;;;;25.30;15.25;;;19.80;99.90;;;-144.05;84.34;125687.94;4941306;29;20023;-90
2022/08/20 00:31:17;;;;;;;30.98;17.83;;;19.80;99.90;;;-144.05;85.12;125687.94;4940680;29;20041;-90
2022/08/20 00:33:46;;;;;;;27.30;16.30;;;19.80;99.90;;;-144.05;85.46;125687.94;4945228;29;20042;-89
2022/08/20 00:36:14;;;;;;;26.83;16.13;;;19.70;99.90;;;-144.05;85.66;125687.94;4956330;29;20023;-90
2022/08/20 00:38:44;;;;;;;29.00;18.10;;;19.60;99.90;;;-144.05;86.31;125687.94;4961925;28;20023;-89
2022/08/20 00:41:24;;;;;;;25.15;12.85;;;19.60;99.90;;;-144.05;86.29;125687.94;4952595;29;20051;-93
2022/08/20 00:44:14;;;;;;;18.45;12.50;;;19.60;99.90;;;-144.05;86.70;125687.94;4947714;29;20031;-94
2022/08/20 00:46:45;;;;;;;15.32;9.45;;;19.50;99.90;;;-144.05;86.77;125687.94;4945498;29;20477;-92
2022/08/20 00:49:26;;;;;;;22.08;12.85;;;19.40;99.90;;;-144.05;86.97;125687.94;4960555;29;20066;-90
2022/08/20 00:51:58;;;;;;;19.38;11.93;;;19.40;99.90;;;-144.05;87.29;125687.94;4961695;29;20019;-91
2022/08/20 00:54:58;;;;;;;15.15;9.77;;;19.30;99.90;;;-144.05;87.43;125687.94;4943250;29;20031;-91
2022/08/20 00:57:53;;;;;;;10.02;7.30;;;19.30;99.90;;;-144.05;87.25;125687.94;4957192;29;20038;-91
2022/08/20 01:00:44;;;;;;;9.43;6.97;;;19.20;99.90;;;-144.05;87.80;125687.94;4972481;29;20035;-93
2022/08/20 01:03:16;;;;;;;12.48;7.65;;;19.20;99.90;;;-144.05;88.33;125687.94;4957013;29;20066;-92
2022/08/20 01:05:48;;;;;;;10.88;6.78;;;19.10;99.90;;;-144.05;88.80;125687.94;4954719;29;20027;-92
2022/08/20 01:08:20;;;;;;;5.20;2.83;;;19.00;99.90;;;-144.05;85.90;125687.94;4972397;29;20038;-91
2022/08/20 01:10:56;;;;;;;6.90;3.28;;;18.70;99.90;;;-144.05;86.73;125687.94;4959489;29;20031;-92
2022/08/20 01:13:25;;;;;;;6.45;3.05;;;18.40;99.90;;;-144.05;87.77;125687.94;4958855;29;20058;-91
2022/08/20 01:15:56;;;;;;;5.72;2.67;;;18.30;99.90;;;-144.05;88.28;125687.94;4955459;29;20043;-92
2022/08/20 01:18:27;;;;;;;5.53;1.90;;;18.20;99.90;;;-144.05;88.81;125687.94;4962170;29;20040;-92
2022/08/20 01:21:06;;;;;;;10.60;1.98;;;18.30;99.90;;;-144.05;88.65;125687.94;4978263;28;20059;-91
2022/08/20 01:24:06;;;;;;;3.00;1.98;;;18.30;99.90;;;-144.05;89.18;125687.94;4955377;29;20302;-91
2022/08/20 01:26:44;;;;;;;2.95;1.85;;;18.30;99.90;;;-144.05;89.30;125687.94;4950218;29;20027;-91
2022/08/20 01:29:21;;;;;;;3.72;1.73;;;18.40;99.90;;;-144.05;89.49;125687.94;4948532;29;20194;-90
2022/08/20 01:31:48;;;;;;;2.03;1.75;;;18.40;99.90;;;-144.05;89.42;125687.94;4964226;29;20027;-91
2022/08/20 01:34:19;;;;;;;4.03;2.50;;;18.40;99.90;;;-144.05;89.57;125687.94;4946800;29;20031;-91
2022/08/20 01:36:54;;;;;;;5.13;2.80;;;18.40;99.90;;;-144.05;89.91;125687.94;4949049;29;20031;-92
2022/08/20 01:39:33;;;;;;;4.22;2.67;;;18.40;99.90;;;-144.05;90.20;125687.94;4952405;29;20114;-91
2022/08/20 01:42:19;;;;;;;4.70;2.42;;;18.40;99.90;;;-144.05;90.33;125687.94;4952354;29;21349;-91
2022/08/20 01:44:46;;;;;;;;;;;18.40;99.90;;;-144.05;90.69;125687.94;4954294;29;20031;-89
2022/08/20 01:47:25;;;;;;;;;;;18.50;99.90;;;-144.05;90.60;125687.94;4949434;29;20009;-90
2022/08/20 01:49:59;;;;;;;3.60;2.40;;;18.50;99.90;;;-144.05;90.69;125687.94;4950007;29;19947;-90
2022/08/20 01:53:27;;;;;;;3.95;2.20;;;18.50;99.90;;;-144.05;91.15;125687.94;4951338;29;20086;-91
2022/08/20 01:55:53;;;;;;;4.20;2.88;;;18.50;99.90;;;-144.05;91.08;125687.94;4944708;29;20520;-91
2022/08/20 01:58:21;;;;;;;4.63;3.45;;;18.60;99.90;;;-144.05;91.20;125687.94;4950121;29;20039;-90
2022/08/20 02:00:46;;;;;;;6.05;3.35;;;18.60;99.90;;;-144.05;91.40;125687.94;4950533;29;20031;-91
2022/08/20 02:03:12;;;;;;;6.68;3.60;;;18.60;99.90;;;-144.05;91.37;125687.94;4949085;29;20067;-91
2022/08/20 02:05:38;;;;;;;8.27;5.93;;;18.60;99.90;;;-144.05;91.53;125687.94;4948532;29;20095;-90
2022/08/20 02:08:05;;;;;;;14.80;9.13;;;18.60;99.90;;;-144.05;91.97;125687.94;4964510;28;20051;-91
2022/08/20 02:10:31;;;;;;;12.25;8.52;;;18.70;99.90;;;-144.05;91.94;125687.94;4967091;29;20027;-92
2022/08/20 02:13:00;;;;;;;17.10;9.88;;;18.70;99.90;;;-144.05;92.26;125687.94;4950305;29;20019;-89
2022/08/20 02:15:27;;;;;;;15.82;11.63;;;18.70;99.90;;;-144.05;92.29;125687.94;4943468;29;20478;-89
2022/08/20 02:17:56;;;;;;;15.57;11.02;;;18.70;99.90;;;-144.05;92.50;125687.94;4943768;29;20042;-90
2022/08/20 02:20:30;;;;;;;18.35;11.80;;;18.70;99.90;;;-144.05;92.59;125687.94;4943512;29;20034;-88
2022/08/20 02:22:59;;;;;;;21.02;13.73;;;18.70;99.90;;;-144.05;92.62;125687.94;4960725;29;20054;-89
2022/08/20 02:25:30;;;;;;;20.30;14.52;;;18.70;99.90;;;-144.05;92.47;125687.94;4943011;29;20035;-89
2022/08/20 02:28:04;;;;;;;21.77;14.40;;;18.70;99.90;;;-144.05;92.61;125687.94;4944126;29;20067;-90
2022/08/20 02:30:39;;;;;;;23.48;14.57;;;18.70;99.90;;;-144.05;92.74;125687.94;4944193;29;20039;-89
2022/08/20 02:33:11;;;;;;;24.10;16.08;;;18.80;99.90;;;-144.05;92.84;125687.94;4943948;29;20042;-88
2022/08/20 02:35:41;;;;;;;25.63;17.90;;;18.80;99.90;;;-144.05;92.99;125687.94;4944190;29;20035;-89
2022/08/20 02:38:10;;;;;;;28.13;17.92;;;18.80;99.90;;;-144.05;92.95;125687.94;4944778;29;20100;-90
2022/08/20 02:40:36;;;;;;;26.05;17.42;;;18.80;99.90;;;-144.05;93.32;125687.94;4943315;29;20085;-89
2022/08/20 02:43:04;;;;;;;25.58;16.45;;;18.80;99.90;;;-144.05;93.43;125687.94;4942570;29;20485;-90
2022/08/20 02:45:39;;;;;;;28.38;17.95;;;18.80;99.90;;;-144.05;93.58;125687.94;4941943;29;20035;-88
2022/08/20 02:48:05;;;;;;;32.47;18.38;;;18.90;99.90;;;-144.05;93.49;125687.94;4941758;29;20057;-90
2022/08/20 02:50:31;;;;;;;27.23;17.50;;;18.90;99.90;;;-144.05;93.56;125687.94;4941793;29;20031;-89
2022/08/20 02:52:57;;;;;;;29.85;19.23;;;18.80;99.90;;;-144.05;93.68;125687.94;4941618;29;20135;-90
2022/08/20 02:55:23;;;;;;;33.58;19.73;;;18.80;99.90;;;-144.05;93.81;125687.94;4943310;29;20063;-89
2022/08/20 02:57:55;;;;;;;28.75;19.58;;;18.80;99.90;;;-144.05;93.85;125687.94;4943473;29;20031;-89
2022/08/20 03:00:22;;;;;;;28.60;16.48;;;18.80;99.90;;;-144.05;93.73;125687.94;4942496;29;20497;-90
2022/08/20 03:02:48;;;;;;;25.42;16.92;;;18.80;99.90;;;-144.05;93.69;125687.94;4941619;29;20078;-90
2022/08/20 03:05:14;;;;;;;22.35;14.77;;;18.80;99.90;;;-144.05;93.73;125687.94;4953352;29;20050;-89
2022/08/20 03:07:52;;;;;;;30.02;17.83;;;18.80;99.90;;;-144.05;94.04;125687.94;4949026;29;20347;-91
2022/08/20 03:10:29;;;;;;;31.17;18.60;;;18.80;99.90;;;-144.05;94.15;125687.94;4941657;29;20386;-89
2022/08/20 03:12:55;;;;;;;34.60;20.63;;;18.80;99.90;;;-144.05;94.06;125687.94;4941613;29;20034;-90
2022/08/20 03:15:21;;;;;;;35.42;22.85;;;18.80;99.90;;;-144.05;94.04;125687.94;4942188;29;20027;-89
2022/08/20 03:17:47;;;;;;;67.60;33.05;;;18.80;99.90;;;-144.05;94.13;125687.94;4942001;29;20031;-91
2022/08/20 03:20:14;;;;;;;82.53;41.95;;;18.80;99.90;;;-144.05;94.33;125687.94;4943806;29;20113;-89
2022/08/20 03:22:40;;;;;;;154.98;76.93;;;18.80;99.90;;;-144.05;94.29;125687.94;4942604;29;20041;-89
2022/08/20 03:25:08;;;;;;;103.55;50.63;;;18.80;99.90;;;-144.05;94.31;125687.94;4942789;29;20035;-88
2022/08/20 03:27:34;;;;;;;90.28;43.63;;;18.80;99.90;;;-144.05;94.21;125687.94;4942656;29;20110;-91
2022/08/20 03:30:00;;;;;;;67.57;35.58;;;18.80;99.90;;;-144.05;94.26;125687.94;4943544;29;20498;-90
2022/08/20 03:32:26;;;;;;;63.15;39.28;;;18.80;99.90;;;-144.05;94.55;125687.94;4944143;29;20054;-87
2022/08/20 03:34:52;;;;;;;55.22;31.23;;;18.80;99.90;;;-144.05;94.55;125687.94;4945038;29;20547;-89
2022/08/20 03:37:18;;;;;;;62.63;36.00;;;18.80;99.90;;;-144.05;94.51;125687.94;4947331;29;20123;-89
2022/08/20 03:39:44;;;;;;;50.47;30.50;;;18.80;99.90;;;-144.05;94.52;125687.94;4945516;29;20035;-90
2022/08/20 03:42:10;;;;;;;58.25;31.00;;;18.80;99.90;;;-144.05;94.49;125687.94;4941947;29;20035;-89
2022/08/20 03:44:36;;;;;;;38.92;23.42;;;18.70;99.90;;;-144.05;94.54;125687.94;4942646;29;20039;-89
2022/08/20 03:47:08;;;;;;;45.25;26.02;;;18.70;99.90;;;-144.05;94.37;125687.94;4941912;29;20039;-89
2022/08/20 03:49:35;;;;;;;38.40;23.45;;;18.70;99.90;;;-144.05;94.42;125687.94;4941654;29;20500;-90
2022/08/20 03:52:04;;;;;;;38.50;22.92;;;18.60;99.90;;;-144.05;94.78;125687.94;4941235;29;20035;-89
2022/08/20 03:54:30;;;;;;;44.08;25.77;;;18.70;99.90;;;-144.05;94.70;125687.94;4941617;29;20229;-91
2022/08/20 03:57:01;;;;;;;44.95;25.10;;;18.60;99.90;;;-144.05;94.77;125687.94;4941376;29;20551;-89
2022/08/20 03:59:27;;;;;;;41.08;24.50;;;18.70;99.90;;;-144.05;94.77;125687.94;4941876;29;20122;-89
2022/08/20 04:01:53;;;;;;;37.92;23.20;;;18.60;99.90;;;-144.05;94.99;125687.94;4941832;29;20162;-90
2022/08/20 04:04:20;;;;;;;32.80;20.45;;;18.60;99.90;;;-144.05;94.93;125687.94;4941494;29;20042;-90
2022/08/20 04:06:47;;;;;;;40.25;22.45;;;18.60;99.90;;;-144.05;94.93;125687.94;4942132;29;20031;-90
2022/08/20 04:09:14;;;;;;;39.88;23.30;;;18.60;99.90;;;-144.05;95.00;125687.94;4958856;29;20050;-90
2022/08/20 04:11:42;;;;;;;42.50;23.67;;;18.60;99.90;;;-144.05;95.05;125687.94;4942603;29;20031;-91
2022/08/20 04:14:10;;;;;;;35.75;21.38;;;18.50;99.90;;;-144.05;95.02;125687.94;4929903;29;20058;-91
2022/08/20 04:16:39;;;;;;;34.47;19.42;;;18.50;99.90;;;-144.05;94.80;125687.94;4924725;29;20091;-90
2022/08/20 04:19:06;;;;;;;33.22;20.17;;;18.40;99.90;;;-144.05;95.04;125687.94;4923574;29;20114;-89
2022/08/20 04:21:35;;;;;;;34.63;19.98;;;18.40;99.90;;;-144.05;94.99;125687.94;4923099;29;20060;-90
2022/08/20 04:24:04;;;;;;;32.15;20.05;;;18.30;99.90;;;-144.05;94.96;125687.94;4929088;29;20062;-93
2022/08/20 04:26:36;;;;;;;36.80;21.42;;;18.30;99.90;;;-144.05;94.92;125687.94;4933146;29;20031;-93
2022/08/20 04:29:03;;;;;;;36.83;20.83;;;18.30;99.90;;;-144.05;95.04;125687.94;4932336;29;20034;-91
2022/08/20 04:31:32;;;;;;;40.83;22.75;;;18.20;99.90;;;-144.05;95.22;125687.94;4934300;29;20079;-92
2022/08/20 04:34:02;;;;;;;35.90;20.30;;;18.20;99.90;;;-144.05;95.18;125687.94;4931158;29;20035;-91
2022/08/20 04:36:28;;;;;;;32.92;19.20;;;18.30;99.90;;;-144.05;95.13;125687.94;4931372;29;20122;-91
2022/08/20 04:38:54;;;;;;;54.58;26.27;;;18.30;99.90;;;-144.05;95.22;125687.94;4931720;29;20034;-93
2022/08/20 04:41:22;;;;;;;84.97;34.88;;;18.30;99.90;;;-144.05;95.12;125687.94;4930607;29;20438;-93
2022/08/20 04:43:48;;;;;;;192.18;69.55;;;18.30;99.90;;;-144.05;95.36;125687.94;4931451;29;20032;-91
2022/08/20 04:46:15;;;;;;;402.85;132.10;;;18.30;99.90;;;-144.05;95.30;125687.94;4931422;29;20082;-91
2022/08/20 04:48:41;;;;;;;320.88;108.50;;;18.30;99.90;;;-144.05;95.39;125687.94;4932824;29;20032;-92
2022/08/20 04:51:08;;;;;;;347.60;121.88;;;18.40;99.90;;;-144.05;95.42;125687.94;4930321;29;20035;-90
2022/08/20 04:53:35;;;;;;;296.33;105.35;;;18.50;99.90;;;-144.05;95.38;125687.94;4963731;29;20032;-91
2022/08/20 04:56:02;;;;;;;390.02;136.68;;;18.50;99.90;;;-144.05;95.58;125687.94;4932652;29;20071;-93
2022/08/20 04:58:39;;;;;;;349.75;122.75;;;18.60;99.90;;;-144.05;95.58;125687.94;4932388;29;20099;-92
2022/08/20 05:01:10;;;;;;;484.42;165.30;;;18.60;99.90;;;-144.05;95.61;125687.94;4932090;29;20043;-92
2022/08/20 05:03:39;;;;;;;367.90;137.10;;;18.70;99.90;;;-144.05;95.53;125687.94;4930496;29;20027;-93
2022/08/20 05:06:09;;;;;;;318.30;122.78;;;18.70;99.90;;;-144.05;95.47;125687.94;4931068;29;20418;-91
2022/08/20 05:08:37;;;;;;;251.77;100.68;;;18.70;99.90;;;-144.05;95.46;125687.94;4963884;28;20055;-91
2022/08/20 05:11:06;;;;;;;255.77;102.97;;;18.80;99.90;;;-144.05;95.73;125687.94;4929567;29;20059;-91
2022/08/20 05:13:31;;;;;;;143.88;61.75;;;18.80;99.90;;;-144.05;95.50;125687.94;4934441;29;20038;-90
2022/08/20 05:16:01;;;;;;;137.18;56.40;;;18.80;99.90;;;-144.05;95.45;125687.94;4932670;29;20079;-90
2022/08/20 05:18:31;;;;;;;99.35;41.20;;;18.80;99.90;;;-144.05;95.50;125687.94;4929909;29;20032;-91
2022/08/20 05:21:04;;;;;;;124.63;51.88;;;18.80;99.90;;;-144.05;95.54;125687.94;4935527;29;20447;-93
2022/08/20 05:23:41;;;;;;;105.97;45.60;;;18.80;99.90;;;-144.05;95.42;125687.94;4935033;29;20039;-91
2022/08/20 05:26:10;;;;;;;104.70;44.33;;;18.90;99.90;;;-144.05;95.25;125687.94;4928983;29;20027;-92
2022/08/20 05:28:39;;;;;;;112.40;48.45;;;18.90;99.90;;;-144.05;95.34;125687.94;4925293;29;20036;-91
2022/08/20 05:31:08;;;;;;;113.05;48.55;;;19.00;99.90;;;-144.05;95.30;125687.94;4924552;29;20126;-91
2022/08/20 05:33:37;;;;;;;101.45;45.92;;;19.00;99.90;;;-144.05;95.25;125687.94;4926032;29;20031;-90
2022/08/20 05:36:06;;;;;;;127.65;53.45;;;19.10;99.90;;;-144.05;95.20;125687.94;4925680;29;20067;-91
2022/08/20 05:38:35;;;;;;;189.32;83.00;;;19.20;99.90;;;-144.05;94.91;125687.94;4925613;29;20055;-92
2022/08/20 05:41:03;;;;;;;131.18;59.38;;;19.20;99.90;;;-144.05;94.95;125687.94;4924859;29;20032;-93
2022/08/20 05:43:29;;;;;;;133.68;60.72;;;19.20;99.90;;;-144.05;94.79;125687.94;4926551;29;20596;-91
2022/08/20 05:45:57;;;;;;;109.82;50.85;;;19.30;99.90;;;-144.05;94.71;125687.94;4926593;29;20032;-91
2022/08/20 05:48:24;;;;;;;71.25;36.65;;;19.30;99.90;;;-144.05;94.54;125687.94;4926248;29;20486;-92
2022/08/20 05:50:53;;;;;;;58.58;30.92;;;19.40;99.90;;;-144.05;94.35;125687.94;4925982;29;20122;-91
2022/08/20 05:53:23;;;;;;;56.63;29.75;;;19.40;99.90;;;-144.05;94.04;125687.94;4927210;29;20087;-91
2022/08/20 05:55:50;;;;;;;46.22;24.25;;;19.40;99.90;;;-144.05;93.95;125687.94;4927634;29;20042;-93
2022/08/20 05:58:25;;;;;;;37.85;22.38;;;19.40;99.90;;;-144.05;93.93;125687.94;4926162;29;20059;-92
2022/08/20 06:00:53;;;;;;;36.78;22.35;;;19.50;99.90;;;-144.05;93.63;125687.94;4957266;29;20035;-92
2022/08/20 06:06:07;;;;;;;34.08;19.27;;;19.50;99.90;;;-144.05;93.14;125687.94;4941473;29;20046;-93
2022/08/20 06:08:34;;;;;;;33.60;22.02;;;19.60;99.90;;;-144.05;92.88;125687.94;4926194;29;20028;-93
2022/08/20 06:11:00;;;;;;;36.00;21.52;;;19.70;99.90;;;-144.05;92.56;125687.94;4928622;29;20039;-92
2022/08/20 06:13:27;;;;;;;34.47;22.85;;;19.80;99.90;;;-144.05;92.12;125687.94;4943318;29;20036;-92
2022/08/20 06:15:56;;;;;;;33.78;21.63;;;19.90;99.90;;;-144.05;91.48;125687.94;4927461;29;20032;-91
2022/08/20 06:18:23;;;;;;;31.65;21.20;;;20.00;99.90;;;-144.05;90.19;125687.94;4925991;29;20039;-92
2022/08/20 06:20:50;;;;;;;29.38;21.85;;;19.90;99.90;;;-144.05;89.95;125687.94;4928127;29;20028;-91
2022/08/20 06:23:17;;;;;;;21.58;16.90;;;19.90;99.90;;;-144.05;89.91;125687.94;4928784;29;20046;-91
2022/08/20 06:25:44;;;;;;;23.70;17.23;;;19.90;99.90;;;-144.05;89.89;125687.94;4929210;29;20040;-90
2022/08/20 06:28:13;;;;;;;27.73;19.20;;;19.80;99.90;;;-144.05;89.77;125687.94;4928150;29;20093;-91
2022/08/20 06:30:39;;;;;;;22.67;16.60;;;19.70;99.90;;;-144.05;89.93;125687.94;4927038;29;20032;-89
2022/08/20 06:33:06;;;;;;;25.08;17.90;;;19.60;99.90;;;-144.05;89.91;125687.94;4927893;29;20094;-90
2022/08/20 06:35:32;;;;;;;28.10;20.02;;;19.60;99.90;;;-144.05;90.37;125687.94;4928236;29;20043;-90
2022/08/20 06:37:59;;;;;;;24.10;16.88;;;19.60;99.90;;;-144.05;90.42;125687.94;4930254;29;20022;-90
2022/08/20 06:40:28;;;;;;;21.08;15.90;;;19.60;99.90;;;-144.05;90.37;125687.94;4928486;29;20032;-91
2022/08/20 06:42:56;;;;;;;22.00;15.65;;;19.60;99.90;;;-144.05;90.23;125687.94;4925129;29;20039;-89
2022/08/20 06:45:31;;;;;;;23.73;17.08;;;19.60;99.90;;;-144.05;89.86;125687.94;4925243;29;20103;-90
2022/08/20 06:48:06;;;;;;;20.30;14.18;;;19.60;99.90;;;-144.05;89.88;125687.94;4925001;29;20036;-89
2022/08/20 06:50:40;;;;;;;21.50;14.00;;;19.60;99.90;;;-144.05;89.84;125687.94;4924641;29;20130;-90
2022/08/20 06:53:12;;;;;;;22.08;16.20;;;19.60;99.90;;;-144.05;89.95;125687.94;4925861;29;20027;-90
2022/08/20 06:55:45;;;;;;;16.33;12.35;;;19.70;99.90;;;-144.05;89.92;125687.94;4925150;29;20043;-90
2022/08/20 06:58:13;;;;;;;21.70;15.27;;;19.80;99.90;;;-144.05;89.73;125687.94;4926431;29;20056;-90
2022/08/20 07:00:43;;;;;;;24.33;18.00;;;19.80;99.90;;;-144.05;89.46;125687.94;4926064;29;20051;-89
2022/08/20 07:03:12;;;;;;;21.65;15.98;;;19.70;99.90;;;-144.05;89.44;125687.94;4925893;29;20030;-90
2022/08/20 07:05:43;;;;;;;20.63;15.48;;;19.70;99.90;;;-144.05;89.51;125687.94;4926894;29;20035;-90
2022/08/20 07:08:20;;;;;;;20.10;14.02;;;19.70;99.90;;;-144.05;89.66;125687.94;4926529;29;20040;-90
2022/08/20 07:10:48;;;;;;;22.38;15.48;;;19.80;99.90;;;-144.05;89.56;125687.94;4926302;29;20036;-90
2022/08/20 07:13:15;;;;;;;23.98;16.98;;;19.80;99.90;;;-144.05;89.61;125687.94;4926842;29;20039;-92
2022/08/20 07:15:45;;;;;;;41.85;26.20;;;19.80;99.90;;;-144.05;89.54;125687.94;4924339;29;20521;-89
2022/08/20 07:18:13;;;;;;;35.88;23.95;;;19.80;99.90;;;-144.05;89.00;125687.94;4923151;29;20134;-89
2022/08/20 07:20:40;;;;;;;36.05;23.13;;;19.80;99.90;;;-144.05;89.18;125687.94;4929652;29;20027;-89
2022/08/20 07:23:10;;;;;;;28.30;18.42;;;19.80;99.90;;;-144.05;89.15;125687.94;4934164;29;20035;-90
2022/08/20 07:25:36;;;;;;;28.05;19.80;;;19.80;99.90;;;-144.05;88.35;125687.94;4925862;29;20083;-88
2022/08/20 07:28:13;;;;;;;24.60;17.90;;;19.90;99.90;;;-144.05;88.50;125687.94;4942763;29;20043;-88
2022/08/20 07:33:29;;;;;;;23.77;18.08;;;20.00;99.90;;;-144.05;88.32;125687.94;4942161;29;20591;-90
2022/08/20 07:36:03;;;;;;;39.40;28.08;;;20.20;99.90;;;-144.05;87.61;125687.94;4923543;29;20052;-91
2022/08/20 07:38:32;;;;;;;41.00;27.50;;;20.30;99.90;;;-144.05;86.67;125687.94;4926126;29;20026;-91
2022/08/20 07:41:12;;;;;;;35.97;23.83;;;20.50;99.90;;;-144.05;85.44;125687.94;4927854;29;20035;-93
2022/08/20 07:43:38;;;;;;;27.73;20.85;;;20.60;99.90;;;-144.05;84.16;125687.94;4928789;29;20031;-92
2022/08/20 07:46:08;;;;;;;27.10;20.92;;;20.70;99.90;;;-144.05;83.14;125687.94;4925612;29;20027;-91
2022/08/20 07:48:40;;;;;;;24.95;18.95;;;20.60;99.90;;;-144.05;82.65;125687.94;4926091;29;20027;-90
2022/08/20 07:51:10;;;;;;;33.55;25.20;;;20.60;99.90;;;-144.05;82.31;125687.94;4958098;29;20040;-92
2022/08/20 07:53:41;;;;;;;24.05;18.05;;;20.60;99.90;;;-144.05;82.82;125687.94;4927660;29;20060;-92
2022/08/20 07:56:13;;;;;;;33.58;23.98;;;20.70;99.90;;;-144.05;82.57;125687.94;4925770;29;20039;-90
2022/08/20 07:58:49;;;;;;;33.72;24.25;;;20.70;99.90;;;-144.05;82.86;125687.94;4926137;29;20027;-94
2022/08/20 08:01:29;;;;;;;35.17;23.77;;;20.80;99.90;;;-144.05;82.44;125687.94;4927761;29;20024;-89
2022/08/20 08:03:56;;;;;;;27.23;21.73;;;20.80;99.90;;;-144.05;82.04;125687.94;4926028;29;20032;-90
2022/08/20 08:06:26;;;;;;;27.85;20.85;;;20.70;99.90;;;-144.05;82.61;125687.94;4922321;29;20458;-90
2022/08/20 08:08:53;;;;;;;28.80;22.55;;;20.60;99.90;;;-144.05;82.18;125687.94;4925690;29;20031;-91
2022/08/20 08:11:19;;;;;;;28.55;22.67;;;20.60;99.90;;;-144.05;82.84;125687.94;4928081;29;20070;-93
2022/08/20 08:13:47;;;;;;;32.55;23.60;;;20.50;99.90;;;-144.05;82.84;125687.94;4926571;29;20039;-92
2022/08/20 08:16:15;;;;;;;25.05;19.30;;;20.50;99.90;;;-144.05;83.30;125687.94;4942310;29;20090;-91
2022/08/20 08:18:55;;;;;;;23.65;17.85;;;20.30;99.90;;;-144.05;82.90;125687.94;4926404;29;20032;-93
2022/08/20 08:21:22;;;;;;;30.85;21.95;;;20.30;99.90;;;-144.05;83.52;125687.94;4925418;29;20042;-92
2022/08/20 08:23:53;;;;;;;25.05;18.35;;;20.40;99.90;;;-144.05;83.34;125687.94;4924236;29;20031;-93
2022/08/20 08:26:20;;;;;;;27.52;20.13;;;20.50;99.90;;;-144.05;83.19;125687.94;4924183;29;20031;-91
2022/08/20 08:28:51;;;;;;;27.23;20.83;;;20.60;99.90;;;-144.05;82.07;125687.94;4924785;29;20428;-93
2022/08/20 08:31:17;;;;;;;24.67;18.85;;;20.80;99.90;;;-144.05;81.34;125687.94;4923847;29;20065;-91
2022/08/20 08:33:45;;;;;;;25.13;19.75;;;21.20;99.90;;;-144.05;79.03;125687.94;4923378;29;20038;-92
2022/08/20 08:36:14;;;;;;;20.58;17.17;;;21.80;99.90;;;-144.05;76.91;125687.94;4922810;29;20031;-91
2022/08/20 08:38:45;;;;;;;21.55;18.23;;;22.40;99.90;;;-144.05;70.63;125687.94;4926159;29;20027;-91
2022/08/20 08:41:35;;;;;;;23.73;17.45;;;22.70;99.90;;;-144.05;69.65;125687.94;4913783;29;20036;-91
2022/08/20 08:44:34;;;;;;;20.77;16.50;;;22.50;99.90;;;-144.05;71.60;125687.94;4927585;29;20024;-94
2022/08/20 08:47:34;;;;;;;17.77;15.20;;;22.20;99.90;;;-144.05;73.65;125687.94;4931813;29;20103;-91
2022/08/20 08:50:49;;;;;;;17.50;14.95;;;22.00;99.90;;;-144.05;74.63;125687.94;4932208;29;20039;-91
2022/08/20 08:54:09;;;;;;;17.55;14.35;;;21.90;99.90;;;-144.05;73.94;125687.94;4939776;29;20048;-92
2022/08/20 08:56:39;;;;;;;19.45;15.50;;;21.80;99.90;;;-144.05;72.26;125687.94;4955477;28;20128;-89
2022/08/20 08:59:08;;;;;;;18.52;15.18;;;22.40;99.90;;;-144.05;70.45;125687.94;4924275;29;20103;-89
2022/08/20 09:01:52;;;;;;;20.52;17.13;;;23.20;99.90;;;-144.05;64.57;125687.94;4924651;29;20046;-89
2022/08/20 09:04:21;;;;;;;19.05;14.85;;;23.80;99.90;;;-144.05;63.64;125687.94;4924079;29;20059;-86
2022/08/20 09:06:52;;;;;;;17.58;14.50;;;24.40;99.90;;;-144.05;60.89;125687.94;4923876;29;20038;-88
2022/08/20 09:09:28;;;;;;;13.40;11.38;;;24.80;99.90;;;-144.05;59.19;125687.94;4923871;29;20055;-89
2022/08/20 09:12:03;;;;;;;15.77;12.85;;;25.20;99.90;;;-144.05;54.79;125687.94;4956614;29;20028;-89
2022/08/20 09:14:29;;;;;;;14.40;12.05;;;25.60;99.90;;;-144.05;56.03;125687.94;4939985;29;20031;-88
2022/08/20 09:16:56;;;;;;;14.70;12.27;;;25.60;99.90;;;-144.05;56.26;125687.94;4942648;29;20050;-86
2022/08/20 09:19:22;;;;;;;14.73;13.18;;;25.20;99.90;;;-144.05;56.76;125687.94;4946244;29;20509;-88
2022/08/20 09:21:48;;;;;;;16.08;12.63;;;24.90;99.90;;;-144.05;58.82;125687.94;4945714;29;20050;-90
2022/08/20 09:24:14;;;;;;;14.07;12.57;;;24.40;99.90;;;-144.05;60.00;125687.94;4947033;29;20071;-87
2022/08/20 09:26:40;;;;;;;13.55;12.13;;;24.20;99.90;;;-144.05;60.82;125687.94;4945221;29;20031;-88
2022/08/20 09:29:06;;;;;;;11.98;10.50;;;24.00;99.90;;;-144.05;61.01;125687.94;4968659;29;20087;-89
2022/08/20 09:31:32;;;;;;;12.13;9.25;;;23.90;99.90;;;-144.05;58.58;125687.94;4966220;29;20035;-90
2022/08/20 09:33:57;;;;;;;10.25;8.80;;;23.80;99.90;;;-144.05;61.35;125687.94;4946155;29;20063;-88
2022/08/20 09:36:23;;;;;;;9.32;8.27;;;23.70;99.90;;;-144.05;60.06;125687.94;4945333;29;20043;-88
2022/08/20 09:38:49;;;;;;;9.90;7.80;;;23.60;99.90;;;-144.05;58.99;125687.94;4963473;29;20035;-86
2022/08/20 09:41:15;;;;;;;7.57;6.78;;;23.60;99.90;;;-144.05;56.78;125687.94;4945400;29;20055;-88
2022/08/20 09:43:41;;;;;;;8.13;7.43;;;23.70;99.90;;;-144.05;56.94;125687.94;4945911;29;20441;-88
2022/08/20 09:46:07;;;;;;;11.18;9.57;;;23.80;99.90;;;-144.05;58.91;125687.94;4945395;29;20038;-89
2022/08/20 09:48:34;;;;;;;11.45;9.40;;;23.70;99.90;;;-144.05;60.89;125687.94;4945834;29;20158;-89
2022/08/20 09:51:03;;;;;;;14.05;10.82;;;23.50;99.90;;;-144.05;60.87;125687.94;4946392;29;20086;-90
2022/08/20 09:53:31;;;;;;;12.38;11.10;;;23.20;99.90;;;-144.05;62.54;125687.94;4945340;29;20035;-91
2022/08/20 09:55:59;;;;;;;14.45;10.98;;;23.10;99.90;;;-144.05;58.55;125687.94;4945237;29;20496;-91
2022/08/20 09:58:53;;;;;;;13.38;10.55;;;23.70;99.90;;;-144.05;57.87;125687.94;4944949;29;20027;-90
2022/08/20 10:01:21;;;;;;;13.13;10.85;;;24.50;99.90;;;-144.05;55.04;125687.94;4946201;29;20023;-88
2022/08/20 10:03:49;;;;;;;12.30;10.18;;;25.40;99.90;;;-144.05;53.42;125687.94;4948263;29;20027;-89
2022/08/20 10:06:19;;;;;;;12.13;10.48;;;25.70;99.90;;;-144.05;54.00;125687.94;4947927;29;20126;-89
2022/08/20 10:08:48;;;;;;;15.70;13.43;;;25.90;99.90;;;-144.05;52.68;125687.94;4946025;29;20032;-90